sensor_id;sensor_type;location;lat;lon;timestamp;temperature;humidity
792;DHT22;379;49.022;12.148;2023-08-06T00:00:37;15.10;99.90
792;DHT22;379;49.022;12.148;2023-08-06T00:03:04;15.10;99.90
792;DHT22;379;49.022;12.148;2023-08-06T00:05:31;15.10;99.90
792;DHT22;379;49.022;12.148;2023-08-06T00:07:58;15.10;99.90
792;DHT22;379;49.022;12.148;2023-08-06T00:10:26;15.10;99.90
792;DHT22;379;49.022;12.148;2023-08-06T00:12:52;15.10;99.90
792;DHT22;379;49.022;12.148;2023-08-06T00:15:19;15.20;99.90
792;DHT22;379;49.022;12.148;2023-08-06T00:17:46;15.20;99.90
792;DHT22;379;49.022;12.148;2023-08-06T00:20:13;15.20;99.90
792;DHT22;379;49.022;12.148;2023-08-06T00:22:39;15.30;99.90
792;DHT22;379;49.022;12.148;2023-08-06T00:25:07;15.30;99.90
792;DHT22;379;49.022;12.148;2023-08-06T00:27:35;15.30;99.90
792;DHT22;379;49.022;12.148;2023-08-06T00:30:02;15.30;99.90
792;DHT22;379;49.022;12.148;2023-08-06T00:32:28;15.30;99.90
792;DHT22;379;49.022;12.148;2023-08-06T00:34:55;15.30;99.90
792;DHT22;379;49.022;12.148;2023-08-06T00:37:22;15.30;99.90
792;DHT22;379;49.022;12.148;2023-08-06T00:39:48;15.30;99.90
792;DHT22;379;49.022;12.148;2023-08-06T00:42:15;15.30;99.90
792;DHT22;379;49.022;12.148;2023-08-06T00:44:47;15.40;99.90
792;DHT22;379;49.022;12.148;2023-08-06T00:47:14;15.40;99.90
792;DHT22;379;49.022;12.148;2023-08-06T00:49:41;15.40;99.90
792;DHT22;379;49.022;12.148;2023-08-06T00:52:08;15.40;99.90
792;DHT22;379;49.022;12.148;2023-08-06T00:54:36;15.40;99.90
792;DHT22;379;49.022;12.148;2023-08-06T00:57:04;15.40;99.90
792;DHT22;379;49.022;12.148;2023-08-06T00:59:31;15.40;99.90
792;DHT22;379;49.022;12.148;2023-08-06T01:01:59;15.30;99.90
792;DHT22;379;49.022;12.148;2023-08-06T01:04:26;15.30;99.90
792;DHT22;379;49.022;12.148;2023-08-06T01:07:02;15.30;99.90
792;DHT22;379;49.022;12.148;2023-08-06T01:09:38;15.20;99.90
792;DHT22;379;49.022;12.148;2023-08-06T01:12:20;15.10;99.90
792;DHT22;379;49.022;12.148;2023-08-06T01:15:00;15.20;99.90
792;DHT22;379;49.022;12.148;2023-08-06T01:17:33;15.20;99.90
792;DHT22;379;49.022;12.148;2023-08-06T01:20:00;15.20;99.90
792;DHT22;379;49.022;12.148;2023-08-06T01:22:28;15.10;99.90
792;DHT22;379;49.022;12.148;2023-08-06T01:24:55;15.10;99.90
792;DHT22;379;49.022;12.148;2023-08-06T01:27:26;15.10;99.90
792;DHT22;379;49.022;12.148;2023-08-06T01:30:00;15.10;99.90
792;DHT22;379;49.022;12.148;2023-08-06T01:32:29;15.10;99.90
792;DHT22;379;49.022;12.148;2023-08-06T01:34:59;15.10;99.90
792;DHT22;379;49.022;12.148;2023-08-06T01:37:28;15.10;99.90
792;DHT22;379;49.022;12.148;2023-08-06T01:39:55;15.10;99.90
792;DHT22;379;49.022;12.148;2023-08-06T01:42:21;15.10;99.90
792;DHT22;379;49.022;12.148;2023-08-06T01:44:48;15.00;99.90
792;DHT22;379;49.022;12.148;2023-08-06T01:47:15;15.10;99.90
792;DHT22;379;49.022;12.148;2023-08-06T01:49:41;15.00;99.90
792;DHT22;379;49.022;12.148;2023-08-06T01:52:08;15.00;99.90
792;DHT22;379;49.022;12.148;2023-08-06T01:54:36;14.90;99.90
792;DHT22;379;49.022;12.148;2023-08-06T01:57:03;14.90;99.90
792;DHT22;379;49.022;12.148;2023-08-06T01:59:30;14.80;99.90
792;DHT22;379;49.022;12.148;2023-08-06T02:01:57;14.80;99.90
792;DHT22;379;49.022;12.148;2023-08-06T02:04:23;14.80;99.90
792;DHT22;379;49.022;12.148;2023-08-06T02:06:50;14.70;99.90
792;DHT22;379;49.022;12.148;2023-08-06T02:09:17;14.70;99.90
792;DHT22;379;49.022;12.148;2023-08-06T02:11:45;14.70;99.90
792;DHT22;379;49.022;12.148;2023-08-06T02:14:11;14.70;99.90
792;DHT22;379;49.022;12.148;2023-08-06T02:16:38;14.70;99.90
792;DHT22;379;49.022;12.148;2023-08-06T02:19:05;14.70;99.90
792;DHT22;379;49.022;12.148;2023-08-06T02:21:32;14.70;99.90
792;DHT22;379;49.022;12.148;2023-08-06T02:23:58;14.60;99.90
792;DHT22;379;49.022;12.148;2023-08-06T02:26:25;14.60;99.90
792;DHT22;379;49.022;12.148;2023-08-06T02:28:53;14.60;99.90
792;DHT22;379;49.022;12.148;2023-08-06T02:31:20;14.50;99.90
792;DHT22;379;49.022;12.148;2023-08-06T02:33:46;14.50;99.90
792;DHT22;379;49.022;12.148;2023-08-06T02:36:13;14.40;99.90
792;DHT22;379;49.022;12.148;2023-08-06T02:38:40;14.40;99.90
792;DHT22;379;49.022;12.148;2023-08-06T02:41:07;14.30;99.90
792;DHT22;379;49.022;12.148;2023-08-06T02:43:33;14.30;99.90
792;DHT22;379;49.022;12.148;2023-08-06T02:46:02;14.30;99.90
792;DHT22;379;49.022;12.148;2023-08-06T02:48:28;14.20;99.90
792;DHT22;379;49.022;12.148;2023-08-06T02:50:57;14.20;99.90
792;DHT22;379;49.022;12.148;2023-08-06T02:53:25;14.20;99.90
792;DHT22;379;49.022;12.148;2023-08-06T02:55:51;14.20;99.90
792;DHT22;379;49.022;12.148;2023-08-06T02:58:18;14.20;99.90
792;DHT22;379;49.022;12.148;2023-08-06T03:01:00;14.20;99.90
792;DHT22;379;49.022;12.148;2023-08-06T03:03:28;14.20;99.90
792;DHT22;379;49.022;12.148;2023-08-06T03:05:55;14.20;99.90
792;DHT22;379;49.022;12.148;2023-08-06T03:08:22;14.10;99.90
792;DHT22;379;49.022;12.148;2023-08-06T03:10:49;14.10;99.90
792;DHT22;379;49.022;12.148;2023-08-06T03:13:16;14.10;99.90
792;DHT22;379;49.022;12.148;2023-08-06T03:15:43;14.10;99.90
792;DHT22;379;49.022;12.148;2023-08-06T03:18:11;14.10;99.90
792;DHT22;379;49.022;12.148;2023-08-06T03:20:37;14.10;99.90
792;DHT22;379;49.022;12.148;2023-08-06T03:23:04;14.20;99.90
792;DHT22;379;49.022;12.148;2023-08-06T03:25:31;14.10;99.90
792;DHT22;379;49.022;12.148;2023-08-06T03:27:57;14.10;99.90
792;DHT22;379;49.022;12.148;2023-08-06T03:30:24;14.00;99.90
792;DHT22;379;49.022;12.148;2023-08-06T03:32:51;14.00;99.90
792;DHT22;379;49.022;12.148;2023-08-06T03:35:19;13.90;99.90
792;DHT22;379;49.022;12.148;2023-08-06T03:37:46;13.90;99.90
792;DHT22;379;49.022;12.148;2023-08-06T03:40:12;13.90;99.90
792;DHT22;379;49.022;12.148;2023-08-06T03:42:39;13.90;99.90
792;DHT22;379;49.022;12.148;2023-08-06T03:45:07;13.90;99.90
792;DHT22;379;49.022;12.148;2023-08-06T03:47:34;13.90;99.90
792;DHT22;379;49.022;12.148;2023-08-06T03:50:00;14.00;99.90
792;DHT22;379;49.022;12.148;2023-08-06T03:52:28;14.00;99.90
792;DHT22;379;49.022;12.148;2023-08-06T03:54:55;14.00;99.90
792;DHT22;379;49.022;12.148;2023-08-06T03:57:22;14.00;99.90
792;DHT22;379;49.022;12.148;2023-08-06T03:59:49;14.00;99.90
792;DHT22;379;49.022;12.148;2023-08-06T04:02:15;14.00;99.90
792;DHT22;379;49.022;12.148;2023-08-06T04:04:42;14.00;99.90
792;DHT22;379;49.022;12.148;2023-08-06T04:07:09;14.00;99.90
792;DHT22;379;49.022;12.148;2023-08-06T04:09:52;13.90;99.90
792;DHT22;379;49.022;12.148;2023-08-06T04:12:19;13.90;99.90
792;DHT22;379;49.022;12.148;2023-08-06T04:14:45;13.90;99.90
792;DHT22;379;49.022;12.148;2023-08-06T04:17:12;13.90;99.90
792;DHT22;379;49.022;12.148;2023-08-06T04:19:39;14.00;99.90
792;DHT22;379;49.022;12.148;2023-08-06T04:22:06;14.00;99.90
792;DHT22;379;49.022;12.148;2023-08-06T04:24:33;14.00;99.90
792;DHT22;379;49.022;12.148;2023-08-06T04:27:01;14.10;99.90
792;DHT22;379;49.022;12.148;2023-08-06T04:29:27;14.10;99.90
792;DHT22;379;49.022;12.148;2023-08-06T04:31:54;14.10;99.90
792;DHT22;379;49.022;12.148;2023-08-06T04:34:21;14.20;99.90
792;DHT22;379;49.022;12.148;2023-08-06T04:36:48;14.20;99.90
792;DHT22;379;49.022;12.148;2023-08-06T04:39:15;14.30;99.90
792;DHT22;379;49.022;12.148;2023-08-06T04:41:42;14.30;99.90
792;DHT22;379;49.022;12.148;2023-08-06T04:44:10;14.30;99.90
792;DHT22;379;49.022;12.148;2023-08-06T04:46:37;14.40;99.90
792;DHT22;379;49.022;12.148;2023-08-06T04:49:03;14.40;99.90
792;DHT22;379;49.022;12.148;2023-08-06T04:51:30;14.40;99.90
792;DHT22;379;49.022;12.148;2023-08-06T04:53:57;14.40;99.90
792;DHT22;379;49.022;12.148;2023-08-06T04:56:24;14.50;99.90
792;DHT22;379;49.022;12.148;2023-08-06T04:58:50;14.50;99.90
792;DHT22;379;49.022;12.148;2023-08-06T05:01:19;14.60;99.90
792;DHT22;379;49.022;12.148;2023-08-06T05:03:46;14.60;99.90
792;DHT22;379;49.022;12.148;2023-08-06T05:06:13;14.60;99.90
792;DHT22;379;49.022;12.148;2023-08-06T05:08:40;14.70;99.90
792;DHT22;379;49.022;12.148;2023-08-06T05:11:07;14.70;99.90
792;DHT22;379;49.022;12.148;2023-08-06T05:13:33;14.80;99.90
792;DHT22;379;49.022;12.148;2023-08-06T05:16:00;14.90;99.90
792;DHT22;379;49.022;12.148;2023-08-06T05:18:28;15.00;99.90
792;DHT22;379;49.022;12.148;2023-08-06T05:20:56;15.10;99.90
792;DHT22;379;49.022;12.148;2023-08-06T05:23:22;15.20;99.90
792;DHT22;379;49.022;12.148;2023-08-06T05:25:49;15.30;99.90
792;DHT22;379;49.022;12.148;2023-08-06T05:28:16;15.40;99.90
792;DHT22;379;49.022;12.148;2023-08-06T05:30:42;15.50;99.90
792;DHT22;379;49.022;12.148;2023-08-06T05:33:09;15.60;99.90
792;DHT22;379;49.022;12.148;2023-08-06T05:35:37;15.70;99.90
792;DHT22;379;49.022;12.148;2023-08-06T05:38:04;15.80;99.90
792;DHT22;379;49.022;12.148;2023-08-06T05:40:33;15.90;99.90
792;DHT22;379;49.022;12.148;2023-08-06T05:43:00;16.00;99.90
792;DHT22;379;49.022;12.148;2023-08-06T05:45:26;16.10;99.90
792;DHT22;379;49.022;12.148;2023-08-06T05:47:53;16.20;99.90
792;DHT22;379;49.022;12.148;2023-08-06T05:50:23;16.20;99.90
792;DHT22;379;49.022;12.148;2023-08-06T05:52:51;16.20;99.90
792;DHT22;379;49.022;12.148;2023-08-06T05:55:19;16.20;99.90
792;DHT22;379;49.022;12.148;2023-08-06T05:57:46;16.10;99.90
792;DHT22;379;49.022;12.148;2023-08-06T06:00:12;16.10;99.90
792;DHT22;379;49.022;12.148;2023-08-06T06:02:39;16.10;99.90
792;DHT22;379;49.022;12.148;2023-08-06T06:05:06;16.10;99.90
792;DHT22;379;49.022;12.148;2023-08-06T06:07:33;16.00;99.90
792;DHT22;379;49.022;12.148;2023-08-06T06:10:01;16.00;99.90
792;DHT22;379;49.022;12.148;2023-08-06T06:12:28;16.00;99.90
792;DHT22;379;49.022;12.148;2023-08-06T06:14:55;16.00;99.90
792;DHT22;379;49.022;12.148;2023-08-06T06:17:21;16.00;99.90
792;DHT22;379;49.022;12.148;2023-08-06T06:19:48;16.00;99.90
792;DHT22;379;49.022;12.148;2023-08-06T06:22:15;16.10;99.90
792;DHT22;379;49.022;12.148;2023-08-06T06:24:42;16.10;99.90
792;DHT22;379;49.022;12.148;2023-08-06T06:27:10;16.20;99.90
792;DHT22;379;49.022;12.148;2023-08-06T06:29:36;16.30;99.90
792;DHT22;379;49.022;12.148;2023-08-06T06:32:03;16.50;99.90
792;DHT22;379;49.022;12.148;2023-08-06T06:34:30;16.70;99.90
792;DHT22;379;49.022;12.148;2023-08-06T06:36:57;17.00;99.90
792;DHT22;379;49.022;12.148;2023-08-06T06:39:24;17.10;99.90
792;DHT22;379;49.022;12.148;2023-08-06T06:41:50;17.20;99.90
792;DHT22;379;49.022;12.148;2023-08-06T06:44:18;17.20;99.90
792;DHT22;379;49.022;12.148;2023-08-06T06:46:46;17.40;99.90
792;DHT22;379;49.022;12.148;2023-08-06T06:49:13;17.70;99.90
792;DHT22;379;49.022;12.148;2023-08-06T06:51:39;18.20;99.90
792;DHT22;379;49.022;12.148;2023-08-06T06:54:06;18.80;99.90
792;DHT22;379;49.022;12.148;2023-08-06T06:56:33;19.10;99.90
792;DHT22;379;49.022;12.148;2023-08-06T06:58:59;19.10;99.90
792;DHT22;379;49.022;12.148;2023-08-06T07:01:28;19.40;99.90
792;DHT22;379;49.022;12.148;2023-08-06T07:03:54;19.90;99.90
792;DHT22;379;49.022;12.148;2023-08-06T07:06:21;20.10;99.90
792;DHT22;379;49.022;12.148;2023-08-06T07:08:48;20.20;99.90
792;DHT22;379;49.022;12.148;2023-08-06T07:11:14;20.30;99.90
792;DHT22;379;49.022;12.148;2023-08-06T07:13:41;20.60;99.90
792;DHT22;379;49.022;12.148;2023-08-06T07:16:08;20.50;99.90
792;DHT22;379;49.022;12.148;2023-08-06T07:18:36;20.60;99.90
792;DHT22;379;49.022;12.148;2023-08-06T07:21:03;20.90;98.20
792;DHT22;379;49.022;12.148;2023-08-06T07:23:30;21.20;97.00
792;DHT22;379;49.022;12.148;2023-08-06T07:25:56;21.40;96.20
792;DHT22;379;49.022;12.148;2023-08-06T07:28:23;21.60;95.10
792;DHT22;379;49.022;12.148;2023-08-06T07:30:50;21.80;94.40
792;DHT22;379;49.022;12.148;2023-08-06T07:33:16;21.70;93.30
792;DHT22;379;49.022;12.148;2023-08-06T07:35:45;21.80;92.90
792;DHT22;379;49.022;12.148;2023-08-06T07:38:11;22.00;93.10
792;DHT22;379;49.022;12.148;2023-08-06T07:40:38;22.30;92.00
792;DHT22;379;49.022;12.148;2023-08-06T07:43:05;22.20;90.70
792;DHT22;379;49.022;12.148;2023-08-06T07:45:33;22.40;90.30
792;DHT22;379;49.022;12.148;2023-08-06T07:48:00;22.70;90.30
792;DHT22;379;49.022;12.148;2023-08-06T07:50:27;22.80;88.60
792;DHT22;379;49.022;12.148;2023-08-06T07:52:55;22.80;86.70
792;DHT22;379;49.022;12.148;2023-08-06T07:55:22;22.90;84.20
792;DHT22;379;49.022;12.148;2023-08-06T07:57:49;23.20;83.70
792;DHT22;379;49.022;12.148;2023-08-06T08:00:16;23.30;80.90
792;DHT22;379;49.022;12.148;2023-08-06T08:02:42;23.10;80.00
792;DHT22;379;49.022;12.148;2023-08-06T08:05:09;23.10;78.90
792;DHT22;379;49.022;12.148;2023-08-06T08:07:36;23.30;78.60
792;DHT22;379;49.022;12.148;2023-08-06T08:10:05;23.10;77.10
792;DHT22;379;49.022;12.148;2023-08-06T08:12:32;22.70;76.40
792;DHT22;379;49.022;12.148;2023-08-06T08:14:59;22.30;76.30
792;DHT22;379;49.022;12.148;2023-08-06T08:17:26;22.00;76.30
792;DHT22;379;49.022;12.148;2023-08-06T08:19:53;21.90;77.30
792;DHT22;379;49.022;12.148;2023-08-06T08:22:19;21.80;77.90
792;DHT22;379;49.022;12.148;2023-08-06T08:24:46;21.80;78.20
792;DHT22;379;49.022;12.148;2023-08-06T08:27:14;21.80;77.80
792;DHT22;379;49.022;12.148;2023-08-06T08:29:41;21.90;77.80
792;DHT22;379;49.022;12.148;2023-08-06T08:32:08;22.00;76.60
792;DHT22;379;49.022;12.148;2023-08-06T08:34:35;22.00;76.20
792;DHT22;379;49.022;12.148;2023-08-06T08:37:02;22.20;76.20
792;DHT22;379;49.022;12.148;2023-08-06T08:39:31;22.20;75.70
792;DHT22;379;49.022;12.148;2023-08-06T08:41:58;22.00;74.10
792;DHT22;379;49.022;12.148;2023-08-06T08:44:26;21.90;74.90
792;DHT22;379;49.022;12.148;2023-08-06T08:46:55;22.10;75.30
792;DHT22;379;49.022;12.148;2023-08-06T08:49:23;22.40;76.30
792;DHT22;379;49.022;12.148;2023-08-06T08:51:52;22.40;73.80
792;DHT22;379;49.022;12.148;2023-08-06T08:54:20;22.40;74.50
792;DHT22;379;49.022;12.148;2023-08-06T08:56:49;22.30;72.40
792;DHT22;379;49.022;12.148;2023-08-06T08:59:16;22.00;74.10
792;DHT22;379;49.022;12.148;2023-08-06T09:01:46;21.70;76.70
792;DHT22;379;49.022;12.148;2023-08-06T09:04:17;21.20;78.90
792;DHT22;379;49.022;12.148;2023-08-06T09:06:46;20.50;82.50
792;DHT22;379;49.022;12.148;2023-08-06T09:09:16;19.00;86.40
792;DHT22;379;49.022;12.148;2023-08-06T09:11:48;17.70;91.00
792;DHT22;379;49.022;12.148;2023-08-06T09:14:16;16.80;94.30
792;DHT22;379;49.022;12.148;2023-08-06T09:16:45;16.50;98.70
792;DHT22;379;49.022;12.148;2023-08-06T09:19:13;16.30;99.90
792;DHT22;379;49.022;12.148;2023-08-06T09:21:42;16.20;99.90
792;DHT22;379;49.022;12.148;2023-08-06T09:24:08;15.90;99.90
792;DHT22;379;49.022;12.148;2023-08-06T09:26:36;16.00;99.90
792;DHT22;379;49.022;12.148;2023-08-06T09:29:05;16.50;99.90
792;DHT22;379;49.022;12.148;2023-08-06T09:31:33;17.10;99.90
792;DHT22;379;49.022;12.148;2023-08-06T09:34:02;17.90;99.90
792;DHT22;379;49.022;12.148;2023-08-06T09:36:29;18.60;99.90
792;DHT22;379;49.022;12.148;2023-08-06T09:38:56;19.30;99.90
792;DHT22;379;49.022;12.148;2023-08-06T09:41:26;19.70;99.90
792;DHT22;379;49.022;12.148;2023-08-06T09:43:54;20.00;99.90
792;DHT22;379;49.022;12.148;2023-08-06T09:46:21;20.20;99.90
792;DHT22;379;49.022;12.148;2023-08-06T09:48:48;20.40;99.90
792;DHT22;379;49.022;12.148;2023-08-06T09:51:18;20.50;99.90
792;DHT22;379;49.022;12.148;2023-08-06T09:53:46;20.80;99.40
792;DHT22;379;49.022;12.148;2023-08-06T09:56:14;21.00;99.60
792;DHT22;379;49.022;12.148;2023-08-06T09:58:42;21.00;97.80
792;DHT22;379;49.022;12.148;2023-08-06T10:01:09;20.40;93.80
792;DHT22;379;49.022;12.148;2023-08-06T10:03:38;19.30;94.60
792;DHT22;379;49.022;12.148;2023-08-06T10:06:05;18.40;96.40
792;DHT22;379;49.022;12.148;2023-08-06T10:08:35;17.90;98.30
792;DHT22;379;49.022;12.148;2023-08-06T10:11:03;17.70;99.80
792;DHT22;379;49.022;12.148;2023-08-06T10:13:31;17.80;99.90
792;DHT22;379;49.022;12.148;2023-08-06T10:15:59;18.00;99.90
792;DHT22;379;49.022;12.148;2023-08-06T10:18:27;18.10;99.90
792;DHT22;379;49.022;12.148;2023-08-06T10:20:54;18.40;99.90
792;DHT22;379;49.022;12.148;2023-08-06T10:23:33;18.50;99.90
792;DHT22;379;49.022;12.148;2023-08-06T10:26:01;18.60;99.90
792;DHT22;379;49.022;12.148;2023-08-06T10:28:34;18.90;99.90
792;DHT22;379;49.022;12.148;2023-08-06T10:31:01;19.40;99.90
792;DHT22;379;49.022;12.148;2023-08-06T10:33:44;20.00;99.50
792;DHT22;379;49.022;12.148;2023-08-06T10:36:11;20.00;98.30
792;DHT22;379;49.022;12.148;2023-08-06T10:38:45;19.60;97.40
792;DHT22;379;49.022;12.148;2023-08-06T10:41:22;18.20;97.30
792;DHT22;379;49.022;12.148;2023-08-06T10:43:49;17.00;99.20
792;DHT22;379;49.022;12.148;2023-08-06T10:46:26;16.00;99.90
792;DHT22;379;49.022;12.148;2023-08-06T10:48:53;15.40;99.90
792;DHT22;379;49.022;12.148;2023-08-06T10:51:19;15.10;99.90
792;DHT22;379;49.022;12.148;2023-08-06T10:53:48;15.00;99.90
792;DHT22;379;49.022;12.148;2023-08-06T10:56:17;15.30;99.90
792;DHT22;379;49.022;12.148;2023-08-06T10:58:45;15.90;99.90
792;DHT22;379;49.022;12.148;2023-08-06T11:01:12;16.50;99.90
792;DHT22;379;49.022;12.148;2023-08-06T11:03:39;17.00;99.90
792;DHT22;379;49.022;12.148;2023-08-06T11:06:06;17.40;99.90
792;DHT22;379;49.022;12.148;2023-08-06T11:08:35;17.50;99.90
792;DHT22;379;49.022;12.148;2023-08-06T11:11:08;17.30;99.90
792;DHT22;379;49.022;12.148;2023-08-06T11:13:37;17.40;99.90
792;DHT22;379;49.022;12.148;2023-08-06T11:16:04;17.50;99.90
792;DHT22;379;49.022;12.148;2023-08-06T11:18:31;17.50;99.90
792;DHT22;379;49.022;12.148;2023-08-06T11:20:59;17.50;99.90
792;DHT22;379;49.022;12.148;2023-08-06T11:23:26;17.50;99.90
792;DHT22;379;49.022;12.148;2023-08-06T11:25:54;17.60;99.90
792;DHT22;379;49.022;12.148;2023-08-06T11:28:21;17.90;99.90
792;DHT22;379;49.022;12.148;2023-08-06T11:30:49;17.80;99.90
792;DHT22;379;49.022;12.148;2023-08-06T11:33:20;18.00;99.90
792;DHT22;379;49.022;12.148;2023-08-06T11:35:47;18.20;99.90
792;DHT22;379;49.022;12.148;2023-08-06T11:38:14;18.40;99.90
792;DHT22;379;49.022;12.148;2023-08-06T11:40:43;18.60;99.90
792;DHT22;379;49.022;12.148;2023-08-06T11:43:10;18.70;99.90
792;DHT22;379;49.022;12.148;2023-08-06T11:45:37;18.60;99.90
792;DHT22;379;49.022;12.148;2023-08-06T11:48:06;18.10;99.90
792;DHT22;379;49.022;12.148;2023-08-06T11:50:36;17.80;99.90
792;DHT22;379;49.022;12.148;2023-08-06T11:53:03;18.00;99.90
792;DHT22;379;49.022;12.148;2023-08-06T11:55:30;18.40;99.90
792;DHT22;379;49.022;12.148;2023-08-06T11:57:58;19.00;99.90
792;DHT22;379;49.022;12.148;2023-08-06T12:00:25;19.40;99.90
792;DHT22;379;49.022;12.148;2023-08-06T12:02:52;19.50;99.90
792;DHT22;379;49.022;12.148;2023-08-06T12:05:23;19.50;99.90
792;DHT22;379;49.022;12.148;2023-08-06T12:07:51;19.40;99.90
792;DHT22;379;49.022;12.148;2023-08-06T12:10:18;19.10;99.90
792;DHT22;379;49.022;12.148;2023-08-06T12:12:46;18.90;97.80
792;DHT22;379;49.022;12.148;2023-08-06T12:15:13;18.60;97.60
792;DHT22;379;49.022;12.148;2023-08-06T12:17:40;18.60;99.80
792;DHT22;379;49.022;12.148;2023-08-06T12:20:08;18.70;99.90
792;DHT22;379;49.022;12.148;2023-08-06T12:22:37;19.00;99.90
792;DHT22;379;49.022;12.148;2023-08-06T12:25:07;19.30;99.90
792;DHT22;379;49.022;12.148;2023-08-06T12:27:34;19.70;99.90
792;DHT22;379;49.022;12.148;2023-08-06T12:30:01;20.10;99.30
792;DHT22;379;49.022;12.148;2023-08-06T12:32:29;20.30;96.10
792;DHT22;379;49.022;12.148;2023-08-06T12:34:56;20.50;95.40
792;DHT22;379;49.022;12.148;2023-08-06T12:37:24;20.50;94.80
792;DHT22;379;49.022;12.148;2023-08-06T12:39:52;20.60;94.80
792;DHT22;379;49.022;12.148;2023-08-06T12:42:19;20.70;94.00
792;DHT22;379;49.022;12.148;2023-08-06T12:44:46;20.70;92.20
792;DHT22;379;49.022;12.148;2023-08-06T12:47:14;20.40;91.40
792;DHT22;379;49.022;12.148;2023-08-06T12:49:40;19.90;90.90
792;DHT22;379;49.022;12.148;2023-08-06T12:52:07;19.30;90.80
792;DHT22;379;49.022;12.148;2023-08-06T12:54:35;18.50;92.30
792;DHT22;379;49.022;12.148;2023-08-06T12:57:04;17.60;95.40
792;DHT22;379;49.022;12.148;2023-08-06T12:59:31;16.90;98.60
792;DHT22;379;49.022;12.148;2023-08-06T13:01:58;16.40;99.90
792;DHT22;379;49.022;12.148;2023-08-06T13:04:25;16.10;99.90
792;DHT22;379;49.022;12.148;2023-08-06T13:06:53;16.10;99.90
792;DHT22;379;49.022;12.148;2023-08-06T13:09:19;16.20;99.90
792;DHT22;379;49.022;12.148;2023-08-06T13:11:46;16.40;99.90
792;DHT22;379;49.022;12.148;2023-08-06T13:14:17;16.70;99.90
792;DHT22;379;49.022;12.148;2023-08-06T13:16:44;17.00;99.90
792;DHT22;379;49.022;12.148;2023-08-06T13:19:12;17.40;99.90
792;DHT22;379;49.022;12.148;2023-08-06T13:21:59;17.90;99.90
792;DHT22;379;49.022;12.148;2023-08-06T13:24:26;18.50;99.90
792;DHT22;379;49.022;12.148;2023-08-06T13:26:53;19.00;99.90
792;DHT22;379;49.022;12.148;2023-08-06T13:29:21;19.50;99.90
792;DHT22;379;49.022;12.148;2023-08-06T13:31:48;20.00;99.90
792;DHT22;379;49.022;12.148;2023-08-06T13:34:15;20.30;99.90
792;DHT22;379;49.022;12.148;2023-08-06T13:36:42;20.40;99.90
792;DHT22;379;49.022;12.148;2023-08-06T13:39:08;20.50;99.90
792;DHT22;379;49.022;12.148;2023-08-06T13:41:36;20.60;99.90
792;DHT22;379;49.022;12.148;2023-08-06T13:44:04;20.50;99.30
792;DHT22;379;49.022;12.148;2023-08-06T13:46:32;20.30;98.40
792;DHT22;379;49.022;12.148;2023-08-06T13:48:58;19.80;97.30
792;DHT22;379;49.022;12.148;2023-08-06T13:51:25;19.30;97.70
792;DHT22;379;49.022;12.148;2023-08-06T13:53:52;18.90;98.40
792;DHT22;379;49.022;12.148;2023-08-06T13:56:19;18.60;99.10
792;DHT22;379;49.022;12.148;2023-08-06T13:58:46;18.30;98.70
792;DHT22;379;49.022;12.148;2023-08-06T14:01:13;18.10;98.10
792;DHT22;379;49.022;12.148;2023-08-06T14:03:44;18.10;99.10
792;DHT22;379;49.022;12.148;2023-08-06T14:06:11;18.20;99.80
792;DHT22;379;49.022;12.148;2023-08-06T14:08:38;18.60;99.40
792;DHT22;379;49.022;12.148;2023-08-06T14:11:05;18.90;98.80
792;DHT22;379;49.022;12.148;2023-08-06T14:13:32;19.20;98.50
792;DHT22;379;49.022;12.148;2023-08-06T14:15:59;19.40;94.70
792;DHT22;379;49.022;12.148;2023-08-06T14:18:25;19.60;95.00
792;DHT22;379;49.022;12.148;2023-08-06T14:20:54;19.90;94.60
792;DHT22;379;49.022;12.148;2023-08-06T14:23:21;20.30;93.50
792;DHT22;379;49.022;12.148;2023-08-06T14:25:47;20.60;92.80
792;DHT22;379;49.022;12.148;2023-08-06T14:28:14;20.70;92.80
792;DHT22;379;49.022;12.148;2023-08-06T14:30:41;20.50;89.00
792;DHT22;379;49.022;12.148;2023-08-06T14:33:07;20.00;88.80
792;DHT22;379;49.022;12.148;2023-08-06T14:35:34;19.40;90.50
792;DHT22;379;49.022;12.148;2023-08-06T14:38:02;18.80;91.30
792;DHT22;379;49.022;12.148;2023-08-06T14:40:29;18.30;92.40
792;DHT22;379;49.022;12.148;2023-08-06T14:42:59;17.90;92.90
792;DHT22;379;49.022;12.148;2023-08-06T14:45:26;17.60;93.50
792;DHT22;379;49.022;12.148;2023-08-06T14:47:53;17.70;93.50
792;DHT22;379;49.022;12.148;2023-08-06T14:50:20;18.10;94.10
792;DHT22;379;49.022;12.148;2023-08-06T14:52:46;18.50;93.80
792;DHT22;379;49.022;12.148;2023-08-06T14:55:23;18.90;93.40
792;DHT22;379;49.022;12.148;2023-08-06T14:57:50;19.40;91.30
792;DHT22;379;49.022;12.148;2023-08-06T15:00:17;19.40;91.50
792;DHT22;379;49.022;12.148;2023-08-06T15:02:44;19.20;91.10
792;DHT22;379;49.022;12.148;2023-08-06T15:05:10;19.00;88.00
792;DHT22;379;49.022;12.148;2023-08-06T15:07:37;18.70;88.90
792;DHT22;379;49.022;12.148;2023-08-06T15:10:05;18.40;89.70
792;DHT22;379;49.022;12.148;2023-08-06T15:12:33;18.20;90.70
792;DHT22;379;49.022;12.148;2023-08-06T15:15:00;18.10;91.00
792;DHT22;379;49.022;12.148;2023-08-06T15:17:27;17.90;90.90
792;DHT22;379;49.022;12.148;2023-08-06T15:19:56;17.80;91.70
792;DHT22;379;49.022;12.148;2023-08-06T15:22:23;17.50;92.20
792;DHT22;379;49.022;12.148;2023-08-06T15:24:50;17.10;93.90
792;DHT22;379;49.022;12.148;2023-08-06T15:27:17;17.00;95.00
792;DHT22;379;49.022;12.148;2023-08-06T15:29:45;17.00;94.50
792;DHT22;379;49.022;12.148;2023-08-06T15:32:12;17.00;95.20
792;DHT22;379;49.022;12.148;2023-08-06T15:34:39;17.00;95.80
792;DHT22;379;49.022;12.148;2023-08-06T15:37:06;17.10;95.90
792;DHT22;379;49.022;12.148;2023-08-06T15:39:33;17.00;95.70
792;DHT22;379;49.022;12.148;2023-08-06T15:41:59;16.90;96.10
792;DHT22;379;49.022;12.148;2023-08-06T15:44:26;16.80;96.80
792;DHT22;379;49.022;12.148;2023-08-06T15:46:54;16.50;96.60
792;DHT22;379;49.022;12.148;2023-08-06T15:49:21;16.40;97.20
792;DHT22;379;49.022;12.148;2023-08-06T15:51:47;16.40;97.40
792;DHT22;379;49.022;12.148;2023-08-06T15:54:15;16.30;97.30
792;DHT22;379;49.022;12.148;2023-08-06T15:56:41;16.30;97.40
792;DHT22;379;49.022;12.148;2023-08-06T15:59:21;16.20;97.10
792;DHT22;379;49.022;12.148;2023-08-06T16:01:49;16.20;97.00
792;DHT22;379;49.022;12.148;2023-08-06T16:04:17;16.10;96.70
792;DHT22;379;49.022;12.148;2023-08-06T16:06:44;16.00;96.70
792;DHT22;379;49.022;12.148;2023-08-06T16:09:10;16.00;97.10
792;DHT22;379;49.022;12.148;2023-08-06T16:11:38;15.90;97.50
792;DHT22;379;49.022;12.148;2023-08-06T16:14:04;15.80;98.10
792;DHT22;379;49.022;12.148;2023-08-06T16:16:31;15.60;98.90
792;DHT22;379;49.022;12.148;2023-08-06T16:18:58;15.50;99.50